createdAt,value
2017-07-18T00:00:30.150Z,18.90
2017-07-18T00:02:58.450Z,18.80
2017-07-18T00:05:27.480Z,18.80
2017-07-18T00:07:55.747Z,18.70
2017-07-18T00:10:24.050Z,18.70
2017-07-18T00:12:53.079Z,18.70
2017-07-18T00:15:21.340Z,18.70
2017-07-18T00:17:49.749Z,18.80
2017-07-18T00:20:18.053Z,18.80
2017-07-18T00:22:46.336Z,18.80
2017-07-18T00:25:14.732Z,18.70
2017-07-18T00:27:43.001Z,18.60
2017-07-18T00:30:12.060Z,18.30
2017-07-18T00:32:40.366Z,18.30
2017-07-18T00:35:08.672Z,18.20
2017-07-18T00:37:36.947Z,18.10
2017-07-18T00:40:05.269Z,18.10
2017-07-18T00:42:33.541Z,18.20
2017-07-18T00:45:01.811Z,18.20
2017-07-18T00:47:30.116Z,18.20
2017-07-18T00:49:59.141Z,18.10
2017-07-18T00:52:27.415Z,18.10
2017-07-18T00:54:55.781Z,18.10
2017-07-18T00:57:24.031Z,18.00
2017-07-18T00:59:52.304Z,17.90
2017-07-18T01:02:20.685Z,17.90
2017-07-18T01:04:49.212Z,17.90
2017-07-18T01:07:17.492Z,17.90
2017-07-18T01:09:45.804Z,17.90
2017-07-18T01:12:14.828Z,17.80
2017-07-18T01:14:43.100Z,17.80
2017-07-18T01:17:11.433Z,17.80
2017-07-18T01:19:39.706Z,17.70
2017-07-18T01:22:07.993Z,17.70
2017-07-18T01:24:36.321Z,17.60
2017-07-18T01:27:04.588Z,17.60
2017-07-18T01:29:32.843Z,17.60
2017-07-18T01:32:01.166Z,17.60
2017-07-18T01:34:30.191Z,17.50
2017-07-18T01:36:58.476Z,17.40
2017-07-18T01:39:26.775Z,17.50
2017-07-18T01:41:55.812Z,17.50
2017-07-18T01:44:24.077Z,17.40
2017-07-18T01:46:52.490Z,17.50
2017-07-18T01:49:20.755Z,17.50
2017-07-18T01:51:49.038Z,17.40
2017-07-18T01:54:17.445Z,17.50
2017-07-18T01:56:45.725Z,17.40
2017-07-18T01:59:14.743Z,17.50
2017-07-18T02:01:43.061Z,17.40
2017-07-18T02:04:12.092Z,17.40
2017-07-18T02:06:40.366Z,17.30
2017-07-18T02:09:08.675Z,17.40
2017-07-18T02:11:36.989Z,17.40
2017-07-18T02:14:05.253Z,17.40
2017-07-18T02:16:33.589Z,17.40
2017-07-18T02:19:01.856Z,17.40
2017-07-18T02:21:30.115Z,17.40
2017-07-18T02:23:58.465Z,17.40
2017-07-18T02:26:26.746Z,17.40
2017-07-18T02:28:55.006Z,17.50
2017-07-18T02:31:23.388Z,17.60
2017-07-18T02:33:51.672Z,17.60
2017-07-18T02:36:20.710Z,17.40
2017-07-18T02:38:49.064Z,17.40
2017-07-18T02:41:17.332Z,17.40
2017-07-18T02:43:45.591Z,17.30
2017-07-18T02:46:14.797Z,17.30
2017-07-18T02:48:43.088Z,17.20
2017-07-18T02:51:11.353Z,17.10
2017-07-18T02:53:40.546Z,17.00
2017-07-18T02:56:08.840Z,16.90
2017-07-18T02:58:37.109Z,17.00
2017-07-18T03:01:05.409Z,17.10
2017-07-18T03:03:34.452Z,17.20
2017-07-18T03:06:02.748Z,17.10
2017-07-18T03:08:31.042Z,17.10
2017-07-18T03:10:59.319Z,17.00
2017-07-18T03:13:27.584Z,16.80
2017-07-18T03:15:55.897Z,16.80
2017-07-18T03:18:24.963Z,16.80
2017-07-18T03:20:53.233Z,16.70
2017-07-18T03:23:21.580Z,16.70
2017-07-18T03:25:49.830Z,16.70
2017-07-18T03:28:18.089Z,16.80
2017-07-18T03:30:46.411Z,16.70
2017-07-18T03:33:14.679Z,16.70
2017-07-18T03:35:42.965Z,16.70
2017-07-18T03:38:11.372Z,16.70
2017-07-18T03:40:39.633Z,16.80
2017-07-18T03:43:08.659Z,17.00
2017-07-18T03:45:36.980Z,16.90
2017-07-18T03:48:06.025Z,16.80
2017-07-18T03:50:34.293Z,16.80
2017-07-18T03:53:02.624Z,16.80
2017-07-18T03:55:30.924Z,16.80
2017-07-18T03:57:59.183Z,16.70
2017-07-18T04:00:28.268Z,16.70
2017-07-18T04:02:56.535Z,16.60
2017-07-18T04:05:24.842Z,16.70
2017-07-18T04:07:53.496Z,16.70
2017-07-18T04:10:22.526Z,17.00
2017-07-18T04:12:50.838Z,17.00
2017-07-18T04:15:19.188Z,17.10
2017-07-18T04:17:48.220Z,17.10
2017-07-18T04:20:16.505Z,17.10
2017-07-18T04:22:44.800Z,17.10
2017-07-18T04:25:13.113Z,17.10
2017-07-18T04:27:41.368Z,17.20
2017-07-18T04:30:09.717Z,17.30
2017-07-18T04:32:38.012Z,17.40
2017-07-18T04:35:06.275Z,17.40
2017-07-18T04:37:34.576Z,17.50
2017-07-18T04:40:02.915Z,17.50
2017-07-18T04:42:31.977Z,17.60
2017-07-18T04:45:00.297Z,17.60
2017-07-18T04:47:28.547Z,17.60
2017-07-18T04:49:56.857Z,17.70
2017-07-18T04:52:25.173Z,17.80
2017-07-18T04:54:53.449Z,17.80
2017-07-18T04:57:21.747Z,17.90
2017-07-18T04:59:50.099Z,18.10
2017-07-18T05:02:18.363Z,18.20
2017-07-18T05:04:46.694Z,18.30
2017-07-18T05:07:15.009Z,18.40
2017-07-18T05:09:44.040Z,18.20
2017-07-18T05:12:12.316Z,18.20
2017-07-18T05:14:40.660Z,18.20
2017-07-18T05:17:08.951Z,18.30
2017-07-18T05:19:37.219Z,18.70
2017-07-18T05:22:06.306Z,18.80
2017-07-18T05:24:34.574Z,18.70
2017-07-18T05:27:03.610Z,18.90
2017-07-18T05:29:31.927Z,18.80
2017-07-18T05:32:00.968Z,19.10
2017-07-18T05:34:29.248Z,19.10
2017-07-18T05:36:57.560Z,19.10
2017-07-18T05:39:27.675Z,19.10
2017-07-18T05:41:55.956Z,19.10
2017-07-18T05:44:24.264Z,19.30
2017-07-18T05:46:52.540Z,19.40
2017-07-18T05:49:20.824Z,19.60
2017-07-18T05:51:49.136Z,19.50
2017-07-18T05:54:18.165Z,19.60
2017-07-18T05:56:46.432Z,19.60
2017-07-18T05:59:14.775Z,19.80
2017-07-18T06:01:43.076Z,20.00
2017-07-18T06:04:11.334Z,20.10
2017-07-18T06:06:39.830Z,20.10
2017-07-18T06:09:08.864Z,20.40
2017-07-18T06:11:37.184Z,20.30
2017-07-18T06:14:05.533Z,20.50
2017-07-18T06:16:34.605Z,20.60
2017-07-18T06:19:03.813Z,20.70
2017-07-18T06:21:32.131Z,20.70
2017-07-18T06:24:00.396Z,20.80
2017-07-18T06:26:28.710Z,20.90
2017-07-18T06:28:57.004Z,20.80
2017-07-18T06:31:25.277Z,20.70
2017-07-18T06:33:53.551Z,20.70
2017-07-18T06:36:22.662Z,20.70
2017-07-18T06:38:50.969Z,20.70
2017-07-18T06:41:19.235Z,20.90
2017-07-18T06:43:47.556Z,20.90
2017-07-18T06:46:15.840Z,21.00
2017-07-18T06:48:44.150Z,21.10
2017-07-18T06:51:13.254Z,21.30
2017-07-18T06:53:41.523Z,21.30
2017-07-18T06:56:09.818Z,21.50
2017-07-18T06:58:38.134Z,21.70
2017-07-18T07:01:07.273Z,21.80
2017-07-18T07:03:35.539Z,21.90
2017-07-18T07:06:03.868Z,22.00
2017-07-18T07:08:32.168Z,22.20
2017-07-18T07:11:00.429Z,22.40
2017-07-18T07:13:28.768Z,22.50
2017-07-18T07:15:57.031Z,22.50
2017-07-18T07:18:25.302Z,22.40
2017-07-18T07:20:53.606Z,22.50
2017-07-18T07:23:21.887Z,22.40
2017-07-18T07:25:50.153Z,22.40
2017-07-18T07:28:18.500Z,22.30
2017-07-18T07:30:46.775Z,22.40
2017-07-18T07:33:15.048Z,22.40
2017-07-18T07:35:43.379Z,22.50
2017-07-18T07:38:11.684Z,22.70
2017-07-18T07:40:39.941Z,22.90
2017-07-18T07:43:08.345Z,23.00
2017-07-18T07:45:37.376Z,23.30
2017-07-18T07:48:05.660Z,23.20
2017-07-18T07:50:33.963Z,23.40
2017-07-18T07:53:02.229Z,23.50
2017-07-18T07:55:30.552Z,23.60
2017-07-18T07:57:59.028Z,23.60
2017-07-18T08:00:28.080Z,23.60
2017-07-18T08:02:56.380Z,23.60
2017-07-18T08:05:24.694Z,23.60
2017-07-18T08:07:52.977Z,23.80
2017-07-18T08:10:21.245Z,23.90
2017-07-18T08:12:50.328Z,24.10
2017-07-18T08:15:18.605Z,24.10
2017-07-18T08:17:47.647Z,24.20
2017-07-18T08:20:16.005Z,24.20
2017-07-18T08:22:44.296Z,24.30
2017-07-18T08:25:12.564Z,24.30
2017-07-18T08:27:41.652Z,24.60
2017-07-18T08:30:10.707Z,24.80
2017-07-18T08:32:38.968Z,24.70
2017-07-18T08:35:07.355Z,24.70
2017-07-18T08:37:36.398Z,25.00
2017-07-18T08:40:04.676Z,25.00
2017-07-18T08:42:33.980Z,25.30
2017-07-18T08:45:03.020Z,25.40
2017-07-18T08:47:31.295Z,25.30
2017-07-18T08:49:59.656Z,25.60
2017-07-18T08:52:27.920Z,25.60
2017-07-18T08:54:56.217Z,25.60
2017-07-18T08:57:25.288Z,25.70
2017-07-18T08:59:54.360Z,25.70
2017-07-18T09:02:23.420Z,25.80
2017-07-18T09:04:51.743Z,25.80
2017-07-18T09:07:20.021Z,25.60
2017-07-18T09:09:48.328Z,25.70
2017-07-18T09:12:17.452Z,25.90
2017-07-18T09:14:45.716Z,25.90
2017-07-18T09:17:14.000Z,26.10
2017-07-18T09:19:42.348Z,26.30
2017-07-18T09:22:10.630Z,26.60
2017-07-18T09:24:38.901Z,26.70
2017-07-18T09:27:07.252Z,26.80
2017-07-18T09:29:36.519Z,27.20
2017-07-18T09:32:04.791Z,27.10
2017-07-18T09:34:33.136Z,27.10
2017-07-18T09:37:02.243Z,27.10
2017-07-18T09:39:30.529Z,27.10
2017-07-18T09:41:59.630Z,27.10
2017-07-18T09:44:27.892Z,27.10
2017-07-18T09:46:56.192Z,27.40
2017-07-18T09:49:24.502Z,27.50
2017-07-18T09:51:53.561Z,27.40
2017-07-18T09:54:21.833Z,27.30
2017-07-18T09:56:50.176Z,27.40
2017-07-18T09:59:18.471Z,27.50
2017-07-18T10:01:46.740Z,27.60
2017-07-18T10:04:15.085Z,27.90
2017-07-18T10:06:43.378Z,28.20
2017-07-18T10:09:13.613Z,28.40
2017-07-18T10:11:41.967Z,28.40
2017-07-18T10:14:10.581Z,28.70
2017-07-18T10:16:39.624Z,28.90
2017-07-18T10:19:07.931Z,28.80
2017-07-18T10:21:37.008Z,28.70
2017-07-18T10:24:05.302Z,28.60
2017-07-18T10:26:33.604Z,29.00
2017-07-18T10:29:01.913Z,28.60
2017-07-18T10:31:30.186Z,28.70
2017-07-18T10:33:59.132Z,28.90
2017-07-18T10:36:27.403Z,28.90
2017-07-18T10:38:55.703Z,29.10
2017-07-18T10:41:24.196Z,29.10
2017-07-18T10:43:52.465Z,29.40
2017-07-18T10:46:20.764Z,29.30
2017-07-18T10:48:49.084Z,29.60
2017-07-18T10:51:17.358Z,29.60
2017-07-18T10:53:46.389Z,29.70
2017-07-18T10:56:15.000Z,29.70
2017-07-18T10:58:43.274Z,30.00
2017-07-18T11:01:12.576Z,30.10
2017-07-18T11:03:40.892Z,30.10
2017-07-18T11:06:09.168Z,29.80
2017-07-18T11:08:38.219Z,29.00
2017-07-18T11:11:06.524Z,29.00
2017-07-18T11:13:35.593Z,28.50
2017-07-18T11:16:04.639Z,28.20
2017-07-18T11:18:32.968Z,28.10
2017-07-18T11:21:01.276Z,28.10
2017-07-18T11:23:29.556Z,28.10
2017-07-18T11:25:58.669Z,27.90
2017-07-18T11:28:26.946Z,27.80
2017-07-18T11:30:55.260Z,27.70
2017-07-18T11:33:24.343Z,27.40
2017-07-18T11:35:53.404Z,27.40
2017-07-18T11:38:21.698Z,27.30
2017-07-18T11:40:50.044Z,27.40
2017-07-18T11:43:19.092Z,27.40
2017-07-18T11:45:47.421Z,27.30
2017-07-18T11:48:15.795Z,27.40
2017-07-18T11:50:44.134Z,27.40
2017-07-18T11:53:13.162Z,27.40
2017-07-18T11:55:42.384Z,27.50
2017-07-18T11:58:11.459Z,28.20
2017-07-18T12:00:39.752Z,28.10
2017-07-18T12:03:08.270Z,29.00
2017-07-18T12:05:36.580Z,29.60
2017-07-18T12:08:04.880Z,30.00
2017-07-18T12:10:33.235Z,29.90
2017-07-18T12:13:01.496Z,29.60
2017-07-18T12:15:29.810Z,29.20
2017-07-18T12:17:58.932Z,28.60
2017-07-18T12:20:27.245Z,28.50
2017-07-18T12:22:56.284Z,28.50
2017-07-18T12:25:24.584Z,28.50
2017-07-18T12:27:53.632Z,28.70
2017-07-18T12:30:21.916Z,28.70
2017-07-18T12:32:51.101Z,30.20
2017-07-18T12:35:19.438Z,30.20
2017-07-18T12:37:47.695Z,30.60
2017-07-18T12:40:16.200Z,31.20
2017-07-18T12:42:44.479Z,31.60
2017-07-18T12:45:12.756Z,31.10
2017-07-18T12:47:41.076Z,30.70
2017-07-18T12:50:10.111Z,31.30
2017-07-18T12:52:38.515Z,31.20
2017-07-18T12:55:06.819Z,31.60
2017-07-18T12:57:35.091Z,32.10
2017-07-18T13:00:03.369Z,32.20
2017-07-18T13:02:31.673Z,32.20
2017-07-18T13:05:00.713Z,32.60
2017-07-18T13:07:28.983Z,32.50
2017-07-18T13:09:57.309Z,32.60
2017-07-18T13:12:25.575Z,33.00
2017-07-18T13:14:53.848Z,33.20
2017-07-18T13:17:22.160Z,33.00
2017-07-18T13:19:51.194Z,32.10
2017-07-18T13:22:19.540Z,32.00
2017-07-18T13:24:47.849Z,31.90
2017-07-18T13:27:16.883Z,31.00
2017-07-18T13:29:45.196Z,30.90
2017-07-18T13:32:13.512Z,30.40
2017-07-18T13:34:41.789Z,30.10
2017-07-18T13:37:10.059Z,30.10
2017-07-18T13:39:38.360Z,30.10
2017-07-18T13:42:06.634Z,30.00
2017-07-18T13:44:34.891Z,29.80
2017-07-18T13:47:03.204Z,30.20
2017-07-18T13:49:31.472Z,31.00
2017-07-18T13:51:59.740Z,31.10
2017-07-18T13:54:28.053Z,31.30
2017-07-18T13:56:56.319Z,31.80
2017-07-18T13:59:24.616Z,31.80
2017-07-18T14:01:52.924Z,31.90
2017-07-18T14:04:21.201Z,32.60
2017-07-18T14:06:49.467Z,32.70
2017-07-18T14:09:17.784Z,32.50
2017-07-18T14:11:46.832Z,33.30
2017-07-18T14:14:15.096Z,33.30
2017-07-18T14:16:43.406Z,33.70
2017-07-18T14:19:11.688Z,34.00
2017-07-18T14:21:39.956Z,34.30
2017-07-18T14:24:08.275Z,34.60
2017-07-18T14:26:37.319Z,33.50
2017-07-18T14:29:05.588Z,33.50
2017-07-18T14:31:33.892Z,33.30
2017-07-18T14:34:02.171Z,32.90
2017-07-18T14:36:30.440Z,32.40
2017-07-18T14:38:58.735Z,31.60
2017-07-18T14:41:27.032Z,31.30
2017-07-18T14:43:55.323Z,31.10
2017-07-18T14:46:23.632Z,31.80
2017-07-18T14:48:52.664Z,32.60
2017-07-18T14:51:20.932Z,32.60
2017-07-18T14:53:49.243Z,32.30
2017-07-18T14:56:17.512Z,31.70
2017-07-18T14:58:45.780Z,31.40
2017-07-18T15:01:14.108Z,31.60
2017-07-18T15:03:42.400Z,32.00
2017-07-18T15:06:10.659Z,32.20
2017-07-18T15:08:39.769Z,32.30
2017-07-18T15:11:08.052Z,32.30
2017-07-18T15:13:36.349Z,32.20
2017-07-18T15:16:05.444Z,31.60
2017-07-18T15:18:33.721Z,31.50
2017-07-18T15:21:02.011Z,31.40
2017-07-18T15:23:30.344Z,31.00
2017-07-18T15:25:58.620Z,30.70
2017-07-18T15:28:26.908Z,30.40
2017-07-18T15:30:55.238Z,30.10
2017-07-18T15:33:23.672Z,29.80
2017-07-18T15:35:52.724Z,29.20
2017-07-18T15:38:21.096Z,29.10
2017-07-18T15:40:49.375Z,29.10
2017-07-18T15:43:17.707Z,29.10
2017-07-18T15:45:46.223Z,29.20
2017-07-18T15:48:14.507Z,29.10
2017-07-18T15:50:43.452Z,29.00
2017-07-18T15:53:11.811Z,29.00
2017-07-18T15:55:40.108Z,29.00
2017-07-18T15:58:08.391Z,29.00
2017-07-18T16:00:36.720Z,29.10
2017-07-18T16:03:04.992Z,29.30
2017-07-18T16:05:33.251Z,29.30
2017-07-18T16:08:01.678Z,29.50
2017-07-18T16:10:30.750Z,29.80
2017-07-18T16:12:59.013Z,29.80
2017-07-18T16:15:28.101Z,30.10
2017-07-18T16:17:56.407Z,30.00
2017-07-18T16:20:24.684Z,29.90
2017-07-18T16:22:53.004Z,29.80
2017-07-18T16:25:21.320Z,29.80
2017-07-18T16:27:49.571Z,29.70
2017-07-18T16:30:18.016Z,29.70
2017-07-18T16:32:46.311Z,29.70
2017-07-18T16:35:14.616Z,29.70
2017-07-18T16:37:42.975Z,29.70
2017-07-18T16:40:11.244Z,29.60
2017-07-18T16:42:39.522Z,29.60
2017-07-18T16:45:07.876Z,29.70
2017-07-18T16:47:36.174Z,29.70
2017-07-18T16:50:04.453Z,29.70
2017-07-18T16:52:32.787Z,29.60
2017-07-18T16:55:01.073Z,29.50
2017-07-18T16:57:29.576Z,29.30
2017-07-18T16:59:57.916Z,29.20
2017-07-18T17:02:26.944Z,29.10
2017-07-18T17:04:55.245Z,29.00
2017-07-18T17:07:24.324Z,28.90
2017-07-18T17:09:53.406Z,28.90
2017-07-18T17:12:21.707Z,28.80
2017-07-18T17:14:50.060Z,28.70
2017-07-18T17:17:19.088Z,28.60
2017-07-18T17:19:47.384Z,28.60
2017-07-18T17:22:16.464Z,28.50
2017-07-18T17:24:44.779Z,28.50
2017-07-18T17:27:13.067Z,28.50
2017-07-18T17:29:43.199Z,28.50
2017-07-18T17:32:11.516Z,28.40
2017-07-18T17:34:39.801Z,28.40
2017-07-18T17:37:08.192Z,28.30
2017-07-18T17:39:37.215Z,28.40
2017-07-18T17:42:05.501Z,28.30
2017-07-18T17:44:33.811Z,28.30
2017-07-18T17:47:02.084Z,28.30
2017-07-18T17:49:30.356Z,28.20
2017-07-18T17:51:58.695Z,28.10
2017-07-18T17:54:26.972Z,28.00
2017-07-18T17:56:55.259Z,28.00
2017-07-18T17:59:23.601Z,28.00
2017-07-18T18:01:51.895Z,27.90
2017-07-18T18:04:20.156Z,27.80
2017-07-18T18:06:49.253Z,27.80
2017-07-18T18:09:17.597Z,27.80
2017-07-18T18:11:46.662Z,27.70
2017-07-18T18:14:14.979Z,27.70
2017-07-18T18:16:43.260Z,27.60
2017-07-18T18:19:11.555Z,27.50
2017-07-18T18:21:39.887Z,27.50
2017-07-18T18:24:08.163Z,27.50
2017-07-18T18:26:36.444Z,27.40
2017-07-18T18:29:04.755Z,27.40
2017-07-18T18:31:33.217Z,27.20
2017-07-18T18:34:01.488Z,27.10
2017-07-18T18:36:29.807Z,27.00
2017-07-18T18:38:58.843Z,27.00
2017-07-18T18:41:27.132Z,26.90
2017-07-18T18:43:55.519Z,26.90
2017-07-18T18:46:24.560Z,26.80
2017-07-18T18:48:52.835Z,26.80
2017-07-18T18:51:21.167Z,26.80
2017-07-18T18:53:49.439Z,26.70
2017-07-18T18:56:17.712Z,26.60
2017-07-18T18:58:46.060Z,26.60
2017-07-18T19:01:15.336Z,26.50
2017-07-18T19:03:43.612Z,26.50
2017-07-18T19:06:11.955Z,26.40
2017-07-18T19:08:40.218Z,26.30
2017-07-18T19:11:08.516Z,26.20
2017-07-18T19:13:36.856Z,26.10
2017-07-18T19:16:05.135Z,26.10
2017-07-18T19:18:33.587Z,26.00
2017-07-18T19:21:01.932Z,25.90
2017-07-18T19:23:30.213Z,25.80
2017-07-18T19:25:58.542Z,25.70
2017-07-18T19:28:26.858Z,25.60
2017-07-18T19:30:55.140Z,25.60
2017-07-18T19:33:24.213Z,25.40
2017-07-18T19:35:53.272Z,25.40
2017-07-18T19:38:21.636Z,25.30
2017-07-18T19:40:49.917Z,25.30
2017-07-18T19:43:19.005Z,25.10
2017-07-18T19:45:48.071Z,25.00
2017-07-18T19:48:18.688Z,24.90
2017-07-18T19:50:47.757Z,24.80
2017-07-18T19:53:16.041Z,24.80
2017-07-18T19:55:45.115Z,24.70
2017-07-18T19:58:14.155Z,24.70
2017-07-18T20:00:42.448Z,24.60
2017-07-18T20:03:10.760Z,24.60
2017-07-18T20:05:39.040Z,24.50
2017-07-18T20:08:07.320Z,24.40
2017-07-18T20:10:35.641Z,24.40
2017-07-18T20:13:04.215Z,24.40
2017-07-18T20:15:32.489Z,24.30
2017-07-18T20:18:00.843Z,24.20
2017-07-18T20:20:29.108Z,24.20
2017-07-18T20:22:57.443Z,24.20
2017-07-18T20:25:25.775Z,24.10
2017-07-18T20:27:54.847Z,24.00
2017-07-18T20:30:23.104Z,23.90
2017-07-18T20:32:52.196Z,23.90
2017-07-18T20:35:21.233Z,23.90
2017-07-18T20:37:49.545Z,23.80
2017-07-18T20:40:18.676Z,23.70
2017-07-18T20:42:46.954Z,23.70
2017-07-18T20:45:15.217Z,23.70
2017-07-18T20:47:43.556Z,23.60
2017-07-18T20:50:11.827Z,23.50
2017-07-18T20:52:40.092Z,23.50
2017-07-18T20:55:08.437Z,23.50
2017-07-18T20:57:36.715Z,23.40
2017-07-18T21:00:04.988Z,23.40
2017-07-18T21:02:33.297Z,23.40
2017-07-18T21:05:02.328Z,23.20
2017-07-18T21:07:30.608Z,23.20
2017-07-18T21:09:59.788Z,23.10
2017-07-18T21:12:28.173Z,23.00
2017-07-18T21:14:56.472Z,23.00
2017-07-18T21:17:24.796Z,22.90
2017-07-18T21:19:53.856Z,22.80
2017-07-18T21:22:22.165Z,22.80
2017-07-18T21:24:50.907Z,22.80
2017-07-18T21:27:19.969Z,22.70
2017-07-18T21:29:48.244Z,22.60
2017-07-18T21:32:17.333Z,22.60
2017-07-18T21:34:45.595Z,22.60
2017-07-18T21:37:13.890Z,22.60
2017-07-18T21:39:42.188Z,22.70
2017-07-18T21:42:10.476Z,22.70
2017-07-18T21:44:39.015Z,22.60
2017-07-18T21:47:08.092Z,22.50
2017-07-18T21:49:36.363Z,22.40
2017-07-18T21:52:04.636Z,22.50
2017-07-18T21:54:33.715Z,22.40
2017-07-18T21:57:02.746Z,22.40
2017-07-18T21:59:31.040Z,22.30
2017-07-18T22:01:59.337Z,22.40
2017-07-18T22:04:27.632Z,22.40
2017-07-18T22:06:55.906Z,22.30
2017-07-18T22:09:24.234Z,22.20
2017-07-18T22:11:52.499Z,22.30
2017-07-18T22:14:20.791Z,22.20
2017-07-18T22:16:49.091Z,22.10
2017-07-18T22:19:18.137Z,22.00
2017-07-18T22:21:46.397Z,22.00
2017-07-18T22:24:14.712Z,22.00
2017-07-18T22:26:43.120Z,21.90
2017-07-18T22:29:11.389Z,21.90
2017-07-18T22:31:40.000Z,21.90
2017-07-18T22:34:08.560Z,22.00
2017-07-18T22:36:37.598Z,22.00
2017-07-18T22:39:05.896Z,22.00
2017-07-18T22:41:34.942Z,21.90
2017-07-18T22:44:03.208Z,21.90
2017-07-18T22:46:31.530Z,21.90
2017-07-18T22:48:59.796Z,21.90
2017-07-18T22:51:28.090Z,22.10
2017-07-18T22:53:56.881Z,21.90
2017-07-18T22:56:25.160Z,21.90
2017-07-18T22:58:54.201Z,22.00
2017-07-18T23:01:22.902Z,21.90
2017-07-18T23:03:52.029Z,21.90
2017-07-18T23:06:20.656Z,21.80
2017-07-18T23:08:49.954Z,21.90
2017-07-18T23:11:18.346Z,21.70
2017-07-18T23:13:46.914Z,21.70
2017-07-18T23:16:15.513Z,21.70
2017-07-18T23:18:44.524Z,21.70
2017-07-18T23:21:13.440Z,21.70
2017-07-18T23:23:41.952Z,21.70
2017-07-18T23:26:11.098Z,21.50
2017-07-18T23:28:39.449Z,21.50
2017-07-18T23:31:07.919Z,21.50
2017-07-18T23:33:36.315Z,21.50
2017-07-18T23:36:04.572Z,21.50
2017-07-18T23:38:32.889Z,21.50
2017-07-18T23:41:01.217Z,21.40
2017-07-18T23:43:30.260Z,21.20
2017-07-18T23:45:58.572Z,21.20
2017-07-18T23:48:26.848Z,21.10
2017-07-18T23:50:55.121Z,21.10
2017-07-18T23:53:23.467Z,21.20
2017-07-18T23:55:52.512Z,21.20
2017-07-18T23:58:20.784Z,21.20
